sensor_id;sensor_type;location;lat;lon;timestamp;P1;durP1;ratioP1;P2;durP2;ratioP2
45784;SDS011;31489;51.404;5.474;2022-10-19T00:02:06;8.27;;;2.85;;
45784;SDS011;31489;51.404;5.474;2022-10-19T00:04:32;11.77;;;3.10;;
45784;SDS011;31489;51.404;5.474;2022-10-19T00:06:58;5.82;;;3.15;;
45784;SDS011;31489;51.404;5.474;2022-10-19T00:09:23;6.88;;;3.28;;
45784;SDS011;31489;51.404;5.474;2022-10-19T00:11:50;6.22;;;3.00;;
45784;SDS011;31489;51.404;5.474;2022-10-19T00:14:18;5.13;;;2.88;;
45784;SDS011;31489;51.404;5.474;2022-10-19T00:16:46;6.60;;;2.70;;
45784;SDS011;31489;51.404;5.474;2022-10-19T00:19:14;6.57;;;2.50;;
45784;SDS011;31489;51.404;5.474;2022-10-19T00:21:42;8.88;;;2.63;;
45784;SDS011;31489;51.404;5.474;2022-10-19T00:24:08;9.32;;;2.95;;
45784;SDS011;31489;51.404;5.474;2022-10-19T00:26:34;10.18;;;2.72;;
45784;SDS011;31489;51.404;5.474;2022-10-19T00:29:00;9.73;;;2.72;;
45784;SDS011;31489;51.404;5.474;2022-10-19T00:31:25;10.73;;;2.65;;
45784;SDS011;31489;51.404;5.474;2022-10-19T00:33:52;9.32;;;2.90;;
45784;SDS011;31489;51.404;5.474;2022-10-19T00:36:31;9.85;;;2.72;;
45784;SDS011;31489;51.404;5.474;2022-10-19T00:38:59;7.65;;;2.40;;
45784;SDS011;31489;51.404;5.474;2022-10-19T00:41:29;7.10;;;2.38;;
45784;SDS011;31489;51.404;5.474;2022-10-19T00:44:00;8.27;;;2.50;;
45784;SDS011;31489;51.404;5.474;2022-10-19T00:46:36;5.68;;;2.22;;
45784;SDS011;31489;51.404;5.474;2022-10-19T00:49:18;13.77;;;3.03;;
45784;SDS011;31489;51.404;5.474;2022-10-19T00:51:47;8.23;;;2.97;;
45784;SDS011;31489;51.404;5.474;2022-10-19T00:54:16;7.40;;;2.63;;
45784;SDS011;31489;51.404;5.474;2022-10-19T00:56:44;5.47;;;2.40;;
45784;SDS011;31489;51.404;5.474;2022-10-19T00:59:15;12.05;;;2.90;;
45784;SDS011;31489;51.404;5.474;2022-10-19T01:01:45;8.35;;;2.42;;
45784;SDS011;31489;51.404;5.474;2022-10-19T01:04:13;6.57;;;2.30;;
45784;SDS011;31489;51.404;5.474;2022-10-19T01:06:40;13.32;;;3.33;;
45784;SDS011;31489;51.404;5.474;2022-10-19T01:09:07;6.85;;;2.58;;
45784;SDS011;31489;51.404;5.474;2022-10-19T01:11:45;8.25;;;2.50;;
45784;SDS011;31489;51.404;5.474;2022-10-19T01:14:25;7.80;;;2.60;;
45784;SDS011;31489;51.404;5.474;2022-10-19T01:17:19;11.63;;;2.63;;
45784;SDS011;31489;51.404;5.474;2022-10-19T01:26:24;9.52;;;2.47;;
45784;SDS011;31489;51.404;5.474;2022-10-19T01:28:55;10.85;;;2.60;;
45784;SDS011;31489;51.404;5.474;2022-10-19T01:31:48;7.70;;;2.60;;
45784;SDS011;31489;51.404;5.474;2022-10-19T01:34:23;10.48;;;2.47;;
45784;SDS011;31489;51.404;5.474;2022-10-19T01:37:01;7.45;;;2.67;;
45784;SDS011;31489;51.404;5.474;2022-10-19T01:44:49;9.02;;;2.47;;
45784;SDS011;31489;51.404;5.474;2022-10-19T01:47:38;7.40;;;2.45;;
45784;SDS011;31489;51.404;5.474;2022-10-19T01:50:13;10.40;;;2.65;;
45784;SDS011;31489;51.404;5.474;2022-10-19T01:52:42;4.35;;;2.38;;
45784;SDS011;31489;51.404;5.474;2022-10-19T01:55:08;6.75;;;2.95;;
45784;SDS011;31489;51.404;5.474;2022-10-19T01:57:38;8.52;;;2.75;;
45784;SDS011;31489;51.404;5.474;2022-10-19T02:00:07;7.18;;;2.60;;
45784;SDS011;31489;51.404;5.474;2022-10-19T02:02:36;5.93;;;2.58;;
45784;SDS011;31489;51.404;5.474;2022-10-19T02:05:06;6.97;;;2.53;;
45784;SDS011;31489;51.404;5.474;2022-10-19T02:07:33;5.93;;;2.60;;
45784;SDS011;31489;51.404;5.474;2022-10-19T02:10:01;9.60;;;3.38;;
45784;SDS011;31489;51.404;5.474;2022-10-19T02:12:27;12.27;;;2.83;;
45784;SDS011;31489;51.404;5.474;2022-10-19T02:14:55;10.40;;;2.78;;
45784;SDS011;31489;51.404;5.474;2022-10-19T02:17:24;10.48;;;2.78;;
45784;SDS011;31489;51.404;5.474;2022-10-19T02:19:54;4.80;;;2.38;;
45784;SDS011;31489;51.404;5.474;2022-10-19T02:22:21;8.93;;;3.20;;
45784;SDS011;31489;51.404;5.474;2022-10-19T02:24:47;4.32;;;2.65;;
45784;SDS011;31489;51.404;5.474;2022-10-19T02:27:13;9.55;;;2.67;;
45784;SDS011;31489;51.404;5.474;2022-10-19T02:29:39;12.23;;;3.47;;
45784;SDS011;31489;51.404;5.474;2022-10-19T02:32:05;8.88;;;2.83;;
45784;SDS011;31489;51.404;5.474;2022-10-19T02:34:32;8.10;;;2.53;;
45784;SDS011;31489;51.404;5.474;2022-10-19T02:37:00;8.40;;;2.97;;
45784;SDS011;31489;51.404;5.474;2022-10-19T02:39:26;6.88;;;2.42;;
45784;SDS011;31489;51.404;5.474;2022-10-19T02:41:58;8.10;;;2.13;;
45784;SDS011;31489;51.404;5.474;2022-10-19T02:44:31;5.72;;;2.60;;
45784;SDS011;31489;51.404;5.474;2022-10-19T02:49:40;7.22;;;2.38;;
45784;SDS011;31489;51.404;5.474;2022-10-19T02:52:08;9.95;;;2.35;;
45784;SDS011;31489;51.404;5.474;2022-10-19T02:54:35;8.65;;;2.80;;
45784;SDS011;31489;51.404;5.474;2022-10-19T02:57:03;6.65;;;2.60;;
45784;SDS011;31489;51.404;5.474;2022-10-19T02:59:42;5.38;;;2.45;;
45784;SDS011;31489;51.404;5.474;2022-10-19T03:02:08;9.40;;;2.50;;
45784;SDS011;31489;51.404;5.474;2022-10-19T03:04:34;6.82;;;2.45;;
45784;SDS011;31489;51.404;5.474;2022-10-19T03:07:00;8.38;;;2.70;;
45784;SDS011;31489;51.404;5.474;2022-10-19T03:09:25;9.63;;;2.70;;
45784;SDS011;31489;51.404;5.474;2022-10-19T03:11:51;6.03;;;2.38;;
45784;SDS011;31489;51.404;5.474;2022-10-19T03:14:17;6.60;;;2.50;;
45784;SDS011;31489;51.404;5.474;2022-10-19T03:16:42;6.05;;;2.58;;
45784;SDS011;31489;51.404;5.474;2022-10-19T03:19:08;6.28;;;2.40;;
45784;SDS011;31489;51.404;5.474;2022-10-19T03:21:34;9.13;;;2.75;;
45784;SDS011;31489;51.404;5.474;2022-10-19T03:23:59;7.75;;;2.67;;
45784;SDS011;31489;51.404;5.474;2022-10-19T03:26:25;9.75;;;3.30;;
45784;SDS011;31489;51.404;5.474;2022-10-19T03:28:51;12.02;;;2.72;;
45784;SDS011;31489;51.404;5.474;2022-10-19T03:31:17;6.78;;;2.85;;
45784;SDS011;31489;51.404;5.474;2022-10-19T03:33:43;5.22;;;2.40;;
45784;SDS011;31489;51.404;5.474;2022-10-19T03:36:25;7.72;;;2.60;;
45784;SDS011;31489;51.404;5.474;2022-10-19T03:38:54;6.90;;;2.35;;
45784;SDS011;31489;51.404;5.474;2022-10-19T03:41:25;12.13;;;2.20;;
45784;SDS011;31489;51.404;5.474;2022-10-19T03:43:52;7.15;;;3.20;;
45784;SDS011;31489;51.404;5.474;2022-10-19T03:46:19;9.00;;;2.60;;
45784;SDS011;31489;51.404;5.474;2022-10-19T03:48:45;8.77;;;2.65;;
45784;SDS011;31489;51.404;5.474;2022-10-19T03:51:13;9.57;;;3.00;;
45784;SDS011;31489;51.404;5.474;2022-10-19T03:53:41;4.32;;;2.42;;
45784;SDS011;31489;51.404;5.474;2022-10-19T03:56:10;5.78;;;2.65;;
45784;SDS011;31489;51.404;5.474;2022-10-19T03:58:38;7.70;;;2.55;;
45784;SDS011;31489;51.404;5.474;2022-10-19T04:01:11;7.78;;;3.10;;
45784;SDS011;31489;51.404;5.474;2022-10-19T04:03:56;7.20;;;2.83;;
45784;SDS011;31489;51.404;5.474;2022-10-19T04:06:28;10.25;;;2.75;;
45784;SDS011;31489;51.404;5.474;2022-10-19T04:08:55;4.78;;;2.80;;
45784;SDS011;31489;51.404;5.474;2022-10-19T04:11:26;8.95;;;3.22;;
45784;SDS011;31489;51.404;5.474;2022-10-19T04:13:54;9.10;;;2.78;;
45784;SDS011;31489;51.404;5.474;2022-10-19T04:16:21;8.68;;;2.92;;
45784;SDS011;31489;51.404;5.474;2022-10-19T04:18:48;6.75;;;2.72;;
45784;SDS011;31489;51.404;5.474;2022-10-19T04:21:19;5.40;;;2.63;;
45784;SDS011;31489;51.404;5.474;2022-10-19T04:23:58;7.18;;;2.75;;
45784;SDS011;31489;51.404;5.474;2022-10-19T04:26:36;9.52;;;3.17;;
45784;SDS011;31489;51.404;5.474;2022-10-19T04:29:03;6.72;;;2.97;;
45784;SDS011;31489;51.404;5.474;2022-10-19T04:31:29;11.23;;;3.22;;
45784;SDS011;31489;51.404;5.474;2022-10-19T04:33:55;5.25;;;2.80;;
45784;SDS011;31489;51.404;5.474;2022-10-19T04:36:20;9.75;;;3.00;;
45784;SDS011;31489;51.404;5.474;2022-10-19T04:38:47;4.80;;;3.00;;
45784;SDS011;31489;51.404;5.474;2022-10-19T04:41:14;11.95;;;3.65;;
45784;SDS011;31489;51.404;5.474;2022-10-19T04:43:41;10.45;;;2.85;;
45784;SDS011;31489;51.404;5.474;2022-10-19T04:46:12;12.23;;;3.20;;
45784;SDS011;31489;51.404;5.474;2022-10-19T04:48:42;9.07;;;3.00;;
45784;SDS011;31489;51.404;5.474;2022-10-19T04:51:09;13.30;;;4.10;;
45784;SDS011;31489;51.404;5.474;2022-10-19T04:53:36;6.78;;;3.25;;
45784;SDS011;31489;51.404;5.474;2022-10-19T04:56:03;10.38;;;3.03;;
45784;SDS011;31489;51.404;5.474;2022-10-19T04:58:29;9.60;;;3.03;;
45784;SDS011;31489;51.404;5.474;2022-10-19T05:00:55;12.10;;;3.42;;
45784;SDS011;31489;51.404;5.474;2022-10-19T05:03:21;5.00;;;2.53;;
45784;SDS011;31489;51.404;5.474;2022-10-19T05:05:47;9.70;;;3.50;;
45784;SDS011;31489;51.404;5.474;2022-10-19T05:08:12;6.07;;;3.15;;
45784;SDS011;31489;51.404;5.474;2022-10-19T05:10:38;8.48;;;3.30;;
45784;SDS011;31489;51.404;5.474;2022-10-19T05:13:04;7.47;;;2.92;;
45784;SDS011;31489;51.404;5.474;2022-10-19T05:15:29;9.68;;;3.03;;
45784;SDS011;31489;51.404;5.474;2022-10-19T05:17:55;6.25;;;3.28;;
45784;SDS011;31489;51.404;5.474;2022-10-19T05:20:21;7.57;;;3.25;;
45784;SDS011;31489;51.404;5.474;2022-10-19T05:22:48;9.57;;;3.22;;
45784;SDS011;31489;51.404;5.474;2022-10-19T05:25:14;8.15;;;3.00;;
45784;SDS011;31489;51.404;5.474;2022-10-19T05:27:40;6.72;;;3.15;;
45784;SDS011;31489;51.404;5.474;2022-10-19T05:30:05;8.80;;;3.03;;
45784;SDS011;31489;51.404;5.474;2022-10-19T05:32:32;5.65;;;2.85;;
45784;SDS011;31489;51.404;5.474;2022-10-19T05:34:58;9.45;;;3.08;;
45784;SDS011;31489;51.404;5.474;2022-10-19T05:37:24;8.20;;;3.13;;
45784;SDS011;31489;51.404;5.474;2022-10-19T05:39:50;6.22;;;2.85;;
45784;SDS011;31489;51.404;5.474;2022-10-19T05:42:18;5.72;;;2.85;;
45784;SDS011;31489;51.404;5.474;2022-10-19T05:44:43;7.70;;;2.97;;
45784;SDS011;31489;51.404;5.474;2022-10-19T05:47:09;6.80;;;3.50;;
45784;SDS011;31489;51.404;5.474;2022-10-19T05:49:35;7.00;;;3.03;;
45784;SDS011;31489;51.404;5.474;2022-10-19T05:52:01;5.38;;;2.53;;
45784;SDS011;31489;51.404;5.474;2022-10-19T05:54:27;6.57;;;3.17;;
45784;SDS011;31489;51.404;5.474;2022-10-19T05:56:52;6.15;;;2.80;;
45784;SDS011;31489;51.404;5.474;2022-10-19T05:59:18;6.13;;;2.80;;
45784;SDS011;31489;51.404;5.474;2022-10-19T06:01:45;5.35;;;2.85;;
45784;SDS011;31489;51.404;5.474;2022-10-19T06:04:12;6.68;;;2.85;;
45784;SDS011;31489;51.404;5.474;2022-10-19T06:06:39;7.43;;;2.97;;
45784;SDS011;31489;51.404;5.474;2022-10-19T06:09:06;6.85;;;2.70;;
45784;SDS011;31489;51.404;5.474;2022-10-19T06:11:34;8.43;;;3.35;;
45784;SDS011;31489;51.404;5.474;2022-10-19T06:14:04;5.82;;;3.00;;
45784;SDS011;31489;51.404;5.474;2022-10-19T06:16:32;7.45;;;3.22;;
45784;SDS011;31489;51.404;5.474;2022-10-19T06:18:59;4.90;;;2.88;;
45784;SDS011;31489;51.404;5.474;2022-10-19T06:21:28;6.53;;;2.78;;
45784;SDS011;31489;51.404;5.474;2022-10-19T06:23:56;7.53;;;2.75;;
45784;SDS011;31489;51.404;5.474;2022-10-19T06:26:24;4.07;;;2.85;;
45784;SDS011;31489;51.404;5.474;2022-10-19T06:28:55;9.93;;;2.80;;
45784;SDS011;31489;51.404;5.474;2022-10-19T06:31:24;7.22;;;2.78;;
45784;SDS011;31489;51.404;5.474;2022-10-19T06:33:57;5.43;;;2.67;;
45784;SDS011;31489;51.404;5.474;2022-10-19T06:36:24;6.82;;;2.75;;
45784;SDS011;31489;51.404;5.474;2022-10-19T06:38:52;7.78;;;2.83;;
45784;SDS011;31489;51.404;5.474;2022-10-19T06:41:18;8.10;;;2.60;;
45784;SDS011;31489;51.404;5.474;2022-10-19T06:43:48;7.25;;;2.85;;
45784;SDS011;31489;51.404;5.474;2022-10-19T06:46:14;7.60;;;3.20;;
45784;SDS011;31489;51.404;5.474;2022-10-19T06:48:48;10.50;;;3.40;;
45784;SDS011;31489;51.404;5.474;2022-10-19T06:51:15;10.00;;;3.05;;
45784;SDS011;31489;51.404;5.474;2022-10-19T06:53:41;8.50;;;3.00;;
45784;SDS011;31489;51.404;5.474;2022-10-19T06:56:06;11.50;;;2.83;;
45784;SDS011;31489;51.404;5.474;2022-10-19T06:58:34;9.02;;;3.30;;
45784;SDS011;31489;51.404;5.474;2022-10-19T07:01:01;8.52;;;3.00;;
45784;SDS011;31489;51.404;5.474;2022-10-19T07:03:28;10.30;;;2.95;;
45784;SDS011;31489;51.404;5.474;2022-10-19T07:05:55;5.75;;;2.72;;
45784;SDS011;31489;51.404;5.474;2022-10-19T07:08:23;7.47;;;2.75;;
45784;SDS011;31489;51.404;5.474;2022-10-19T07:10:54;8.82;;;3.63;;
45784;SDS011;31489;51.404;5.474;2022-10-19T07:13:21;9.35;;;3.35;;
45784;SDS011;31489;51.404;5.474;2022-10-19T07:15:47;6.43;;;3.13;;
45784;SDS011;31489;51.404;5.474;2022-10-19T07:18:13;8.75;;;3.08;;
45784;SDS011;31489;51.404;5.474;2022-10-19T07:20:39;7.00;;;2.75;;
45784;SDS011;31489;51.404;5.474;2022-10-19T07:23:05;5.95;;;2.97;;
45784;SDS011;31489;51.404;5.474;2022-10-19T07:25:31;9.68;;;2.90;;
45784;SDS011;31489;51.404;5.474;2022-10-19T07:27:57;6.75;;;3.03;;
45784;SDS011;31489;51.404;5.474;2022-10-19T07:30:23;7.97;;;3.45;;
45784;SDS011;31489;51.404;5.474;2022-10-19T07:32:49;10.07;;;3.70;;
45784;SDS011;31489;51.404;5.474;2022-10-19T07:35:15;8.30;;;3.58;;
45784;SDS011;31489;51.404;5.474;2022-10-19T07:37:40;10.02;;;3.85;;
45784;SDS011;31489;51.404;5.474;2022-10-19T07:40:06;10.07;;;3.60;;
45784;SDS011;31489;51.404;5.474;2022-10-19T07:42:32;8.02;;;3.28;;
45784;SDS011;31489;51.404;5.474;2022-10-19T07:45:01;9.75;;;3.40;;
45784;SDS011;31489;51.404;5.474;2022-10-19T07:47:27;8.40;;;3.15;;
45784;SDS011;31489;51.404;5.474;2022-10-19T07:49:53;9.57;;;3.67;;
45784;SDS011;31489;51.404;5.474;2022-10-19T07:52:19;8.50;;;3.00;;
45784;SDS011;31489;51.404;5.474;2022-10-19T07:54:45;8.65;;;3.22;;
45784;SDS011;31489;51.404;5.474;2022-10-19T07:57:13;7.72;;;3.60;;
45784;SDS011;31489;51.404;5.474;2022-10-19T07:59:40;8.60;;;3.33;;
45784;SDS011;31489;51.404;5.474;2022-10-19T08:02:08;12.55;;;3.28;;
45784;SDS011;31489;51.404;5.474;2022-10-19T08:04:39;6.45;;;3.20;;
45784;SDS011;31489;51.404;5.474;2022-10-19T08:07:05;8.20;;;3.40;;
45784;SDS011;31489;51.404;5.474;2022-10-19T08:09:31;8.05;;;3.45;;
45784;SDS011;31489;51.404;5.474;2022-10-19T08:11:56;9.40;;;3.15;;
45784;SDS011;31489;51.404;5.474;2022-10-19T08:14:22;8.13;;;3.30;;
45784;SDS011;31489;51.404;5.474;2022-10-19T08:16:48;8.48;;;3.15;;
45784;SDS011;31489;51.404;5.474;2022-10-19T08:19:15;5.57;;;3.00;;
45784;SDS011;31489;51.404;5.474;2022-10-19T08:21:45;10.05;;;3.28;;
45784;SDS011;31489;51.404;5.474;2022-10-19T08:24:12;9.13;;;3.08;;
45784;SDS011;31489;51.404;5.474;2022-10-19T08:26:38;6.93;;;2.95;;
45784;SDS011;31489;51.404;5.474;2022-10-19T08:29:06;4.97;;;2.53;;
45784;SDS011;31489;51.404;5.474;2022-10-19T08:31:34;5.85;;;2.95;;
45784;SDS011;31489;51.404;5.474;2022-10-19T08:34:00;9.20;;;3.38;;
45784;SDS011;31489;51.404;5.474;2022-10-19T08:36:26;11.05;;;3.28;;
45784;SDS011;31489;51.404;5.474;2022-10-19T08:38:55;11.25;;;3.33;;
45784;SDS011;31489;51.404;5.474;2022-10-19T08:41:22;11.27;;;3.80;;
45784;SDS011;31489;51.404;5.474;2022-10-19T08:49:24;12.05;;;3.80;;
45784;SDS011;31489;51.404;5.474;2022-10-19T08:52:03;13.57;;;3.42;;
45784;SDS011;31489;51.404;5.474;2022-10-19T09:02:42;8.65;;;3.40;;
45784;SDS011;31489;51.404;5.474;2022-10-19T09:05:14;12.90;;;3.47;;
45784;SDS011;31489;51.404;5.474;2022-10-19T09:07:58;13.10;;;3.25;;
45784;SDS011;31489;51.404;5.474;2022-10-19T09:10:28;8.48;;;2.95;;
45784;SDS011;31489;51.404;5.474;2022-10-19T09:15:41;8.10;;;3.10;;
45784;SDS011;31489;51.404;5.474;2022-10-19T09:18:13;8.88;;;3.35;;
45784;SDS011;31489;51.404;5.474;2022-10-19T09:20:46;7.70;;;3.10;;
45784;SDS011;31489;51.404;5.474;2022-10-19T09:25:51;10.05;;;2.70;;
45784;SDS011;31489;51.404;5.474;2022-10-19T09:28:40;7.75;;;3.30;;
45784;SDS011;31489;51.404;5.474;2022-10-19T09:31:41;8.88;;;3.40;;
45784;SDS011;31489;51.404;5.474;2022-10-19T09:34:20;7.50;;;3.08;;
45784;SDS011;31489;51.404;5.474;2022-10-19T09:37:02;8.07;;;2.80;;
45784;SDS011;31489;51.404;5.474;2022-10-19T09:39:28;12.57;;;3.30;;
45784;SDS011;31489;51.404;5.474;2022-10-19T09:41:55;8.88;;;2.70;;
45784;SDS011;31489;51.404;5.474;2022-10-19T09:44:23;8.32;;;2.80;;
45784;SDS011;31489;51.404;5.474;2022-10-19T09:47:07;14.05;;;3.10;;
45784;SDS011;31489;51.404;5.474;2022-10-19T09:57:42;7.88;;;3.00;;
45784;SDS011;31489;51.404;5.474;2022-10-19T10:00:19;11.15;;;2.78;;
45784;SDS011;31489;51.404;5.474;2022-10-19T10:02:50;9.02;;;3.00;;
45784;SDS011;31489;51.404;5.474;2022-10-19T10:05:21;9.00;;;2.70;;
45784;SDS011;31489;51.404;5.474;2022-10-19T10:07:58;8.68;;;3.08;;
45784;SDS011;31489;51.404;5.474;2022-10-19T10:10:36;12.52;;;2.88;;
45784;SDS011;31489;51.404;5.474;2022-10-19T10:13:03;8.20;;;2.88;;
45784;SDS011;31489;51.404;5.474;2022-10-19T10:15:34;10.07;;;2.83;;
45784;SDS011;31489;51.404;5.474;2022-10-19T10:18:09;9.73;;;3.15;;
45784;SDS011;31489;51.404;5.474;2022-10-19T10:20:38;13.73;;;3.03;;
45784;SDS011;31489;51.404;5.474;2022-10-19T10:23:33;6.70;;;2.72;;
45784;SDS011;31489;51.404;5.474;2022-10-19T10:26:00;9.48;;;2.88;;
45784;SDS011;31489;51.404;5.474;2022-10-19T10:28:28;9.32;;;2.60;;
45784;SDS011;31489;51.404;5.474;2022-10-19T10:31:02;7.05;;;2.85;;
45784;SDS011;31489;51.404;5.474;2022-10-19T10:36:03;7.05;;;2.55;;
45784;SDS011;31489;51.404;5.474;2022-10-19T10:38:45;12.30;;;3.10;;
45784;SDS011;31489;51.404;5.474;2022-10-19T10:41:15;6.82;;;3.00;;
45784;SDS011;31489;51.404;5.474;2022-10-19T10:46:23;6.80;;;3.05;;
45784;SDS011;31489;51.404;5.474;2022-10-19T10:48:56;7.35;;;2.72;;
45784;SDS011;31489;51.404;5.474;2022-10-19T10:51:42;10.77;;;2.75;;
45784;SDS011;31489;51.404;5.474;2022-10-19T10:54:18;11.15;;;2.92;;
45784;SDS011;31489;51.404;5.474;2022-10-19T11:07:57;10.25;;;2.53;;
45784;SDS011;31489;51.404;5.474;2022-10-19T11:10:30;8.77;;;2.85;;
45784;SDS011;31489;51.404;5.474;2022-10-19T11:15:58;10.85;;;3.00;;
45784;SDS011;31489;51.404;5.474;2022-10-19T11:18:38;9.20;;;2.70;;
45784;SDS011;31489;51.404;5.474;2022-10-19T11:21:11;7.40;;;2.70;;
45784;SDS011;31489;51.404;5.474;2022-10-19T11:23:52;7.53;;;2.97;;
45784;SDS011;31489;51.404;5.474;2022-10-19T11:26:37;6.57;;;2.70;;
45784;SDS011;31489;51.404;5.474;2022-10-19T11:29:37;10.88;;;3.00;;
45784;SDS011;31489;51.404;5.474;2022-10-19T11:32:04;8.75;;;3.20;;
45784;SDS011;31489;51.404;5.474;2022-10-19T11:37:58;8.50;;;3.05;;
45784;SDS011;31489;51.404;5.474;2022-10-19T11:40:51;9.48;;;3.17;;
45784;SDS011;31489;51.404;5.474;2022-10-19T11:43:30;9.90;;;3.08;;
45784;SDS011;31489;51.404;5.474;2022-10-19T11:46:40;5.68;;;2.42;;
45784;SDS011;31489;51.404;5.474;2022-10-19T11:52:20;8.10;;;2.40;;
45784;SDS011;31489;51.404;5.474;2022-10-19T12:00:14;5.20;;;2.10;;
45784;SDS011;31489;51.404;5.474;2022-10-19T12:11:01;8.45;;;2.50;;
45784;SDS011;31489;51.404;5.474;2022-10-19T12:13:46;5.80;;;2.38;;
45784;SDS011;31489;51.404;5.474;2022-10-19T12:16:16;7.28;;;2.50;;
45784;SDS011;31489;51.404;5.474;2022-10-19T12:18:48;7.30;;;2.78;;
45784;SDS011;31489;51.404;5.474;2022-10-19T12:23:58;6.05;;;2.45;;
45784;SDS011;31489;51.404;5.474;2022-10-19T12:26:28;7.68;;;2.50;;
45784;SDS011;31489;51.404;5.474;2022-10-19T12:28:59;4.05;;;2.10;;
45784;SDS011;31489;51.404;5.474;2022-10-19T12:31:47;9.95;;;2.20;;
45784;SDS011;31489;51.404;5.474;2022-10-19T12:43:13;5.80;;;2.17;;
45784;SDS011;31489;51.404;5.474;2022-10-19T12:48:14;7.97;;;2.50;;
45784;SDS011;31489;51.404;5.474;2022-10-19T12:58:49;9.23;;;2.33;;
45784;SDS011;31489;51.404;5.474;2022-10-19T13:01:22;7.28;;;2.22;;
45784;SDS011;31489;51.404;5.474;2022-10-19T13:03:50;6.00;;;2.15;;
45784;SDS011;31489;51.404;5.474;2022-10-19T13:06:30;7.65;;;2.30;;
45784;SDS011;31489;51.404;5.474;2022-10-19T13:08:59;6.25;;;2.10;;
45784;SDS011;31489;51.404;5.474;2022-10-19T13:11:30;7.78;;;2.53;;
45784;SDS011;31489;51.404;5.474;2022-10-19T13:13:58;8.48;;;2.15;;
45784;SDS011;31489;51.404;5.474;2022-10-19T13:21:44;7.95;;;2.40;;
45784;SDS011;31489;51.404;5.474;2022-10-19T13:35:41;10.07;;;2.60;;
45784;SDS011;31489;51.404;5.474;2022-10-19T13:40:38;4.68;;;2.05;;
45784;SDS011;31489;51.404;5.474;2022-10-19T13:43:17;10.95;;;2.83;;
45784;SDS011;31489;51.404;5.474;2022-10-19T13:45:53;4.57;;;2.13;;
45784;SDS011;31489;51.404;5.474;2022-10-19T13:48:26;10.05;;;2.15;;
45784;SDS011;31489;51.404;5.474;2022-10-19T13:54:36;7.97;;;2.25;;
45784;SDS011;31489;51.404;5.474;2022-10-19T14:02:59;7.07;;;1.75;;
45784;SDS011;31489;51.404;5.474;2022-10-19T14:11:40;9.43;;;1.63;;
45784;SDS011;31489;51.404;5.474;2022-10-19T14:16:43;5.88;;;2.08;;
45784;SDS011;31489;51.404;5.474;2022-10-19T14:19:29;5.40;;;1.88;;
45784;SDS011;31489;51.404;5.474;2022-10-19T14:21:58;7.22;;;2.00;;
45784;SDS011;31489;51.404;5.474;2022-10-19T14:26:58;11.90;;;1.85;;
45784;SDS011;31489;51.404;5.474;2022-10-19T14:29:29;10.65;;;2.40;;
45784;SDS011;31489;51.404;5.474;2022-10-19T14:31:59;8.55;;;2.17;;
45784;SDS011;31489;51.404;5.474;2022-10-19T14:34:25;9.13;;;1.98;;
45784;SDS011;31489;51.404;5.474;2022-10-19T14:36:51;11.18;;;2.03;;
45784;SDS011;31489;51.404;5.474;2022-10-19T14:39:55;4.63;;;1.80;;
45784;SDS011;31489;51.404;5.474;2022-10-19T14:42:23;7.32;;;2.00;;
45784;SDS011;31489;51.404;5.474;2022-10-19T14:44:49;8.75;;;1.80;;
45784;SDS011;31489;51.404;5.474;2022-10-19T14:47:18;6.63;;;2.47;;
45784;SDS011;31489;51.404;5.474;2022-10-19T14:49:51;7.00;;;2.17;;
45784;SDS011;31489;51.404;5.474;2022-10-19T14:52:19;7.85;;;1.98;;
45784;SDS011;31489;51.404;5.474;2022-10-19T14:54:52;4.00;;;2.00;;
45784;SDS011;31489;51.404;5.474;2022-10-19T14:57:27;6.10;;;1.85;;
45784;SDS011;31489;51.404;5.474;2022-10-19T15:00:04;4.90;;;1.85;;
45784;SDS011;31489;51.404;5.474;2022-10-19T15:05:03;6.13;;;1.73;;
45784;SDS011;31489;51.404;5.474;2022-10-19T15:07:40;6.60;;;1.85;;
45784;SDS011;31489;51.404;5.474;2022-10-19T15:10:20;5.40;;;1.60;;
45784;SDS011;31489;51.404;5.474;2022-10-19T15:12:49;5.40;;;1.80;;
45784;SDS011;31489;51.404;5.474;2022-10-19T15:15:25;6.25;;;1.95;;
45784;SDS011;31489;51.404;5.474;2022-10-19T15:18:01;3.22;;;1.63;;
45784;SDS011;31489;51.404;5.474;2022-10-19T15:20:30;5.40;;;2.00;;
45784;SDS011;31489;51.404;5.474;2022-10-19T15:25:57;4.55;;;1.85;;
45784;SDS011;31489;51.404;5.474;2022-10-19T15:28:35;4.80;;;1.42;;
45784;SDS011;31489;51.404;5.474;2022-10-19T15:31:03;13.52;;;2.10;;
45784;SDS011;31489;51.404;5.474;2022-10-19T15:33:36;6.30;;;1.83;;
45784;SDS011;31489;51.404;5.474;2022-10-19T15:36:07;5.35;;;1.80;;
45784;SDS011;31489;51.404;5.474;2022-10-19T15:38:43;4.57;;;1.42;;
45784;SDS011;31489;51.404;5.474;2022-10-19T15:41:23;7.10;;;2.10;;
45784;SDS011;31489;51.404;5.474;2022-10-19T15:43:57;7.88;;;2.17;;
45784;SDS011;31489;51.404;5.474;2022-10-19T15:46:26;6.07;;;1.42;;
45784;SDS011;31489;51.404;5.474;2022-10-19T15:48:56;4.38;;;1.52;;
45784;SDS011;31489;51.404;5.474;2022-10-19T15:53:50;7.60;;;2.08;;
45784;SDS011;31489;51.404;5.474;2022-10-19T15:56:18;9.45;;;1.98;;
45784;SDS011;31489;51.404;5.474;2022-10-19T15:58:47;6.88;;;2.33;;
45784;SDS011;31489;51.404;5.474;2022-10-19T16:01:14;7.00;;;2.03;;
45784;SDS011;31489;51.404;5.474;2022-10-19T16:03:41;9.18;;;2.00;;
45784;SDS011;31489;51.404;5.474;2022-10-19T16:06:07;4.28;;;2.03;;
45784;SDS011;31489;51.404;5.474;2022-10-19T16:08:34;7.63;;;1.80;;
45784;SDS011;31489;51.404;5.474;2022-10-19T16:11:00;8.82;;;1.60;;
45784;SDS011;31489;51.404;5.474;2022-10-19T16:13:28;9.70;;;2.10;;
45784;SDS011;31489;51.404;5.474;2022-10-19T16:15:55;8.38;;;1.90;;
45784;SDS011;31489;51.404;5.474;2022-10-19T16:18:27;6.55;;;2.38;;
45784;SDS011;31489;51.404;5.474;2022-10-19T16:20:52;15.75;;;2.30;;
45784;SDS011;31489;51.404;5.474;2022-10-19T16:23:18;6.40;;;1.88;;
45784;SDS011;31489;51.404;5.474;2022-10-19T16:25:44;5.00;;;1.92;;
45784;SDS011;31489;51.404;5.474;2022-10-19T16:28:10;8.65;;;2.40;;
45784;SDS011;31489;51.404;5.474;2022-10-19T16:30:38;3.63;;;1.55;;
45784;SDS011;31489;51.404;5.474;2022-10-19T16:33:04;7.47;;;2.30;;
45784;SDS011;31489;51.404;5.474;2022-10-19T16:35:29;5.90;;;2.20;;
45784;SDS011;31489;51.404;5.474;2022-10-19T16:37:55;5.32;;;1.83;;
45784;SDS011;31489;51.404;5.474;2022-10-19T16:40:23;11.02;;;2.25;;
45784;SDS011;31489;51.404;5.474;2022-10-19T16:42:49;8.63;;;2.10;;
45784;SDS011;31489;51.404;5.474;2022-10-19T16:45:15;13.88;;;2.28;;
45784;SDS011;31489;51.404;5.474;2022-10-19T16:47:41;9.35;;;2.40;;
45784;SDS011;31489;51.404;5.474;2022-10-19T16:50:06;10.98;;;2.88;;
45784;SDS011;31489;51.404;5.474;2022-10-19T16:52:34;10.60;;;2.35;;
45784;SDS011;31489;51.404;5.474;2022-10-19T16:55:00;6.82;;;2.30;;
45784;SDS011;31489;51.404;5.474;2022-10-19T16:57:26;6.78;;;2.47;;
45784;SDS011;31489;51.404;5.474;2022-10-19T16:59:52;8.18;;;2.15;;
45784;SDS011;31489;51.404;5.474;2022-10-19T17:02:18;8.15;;;2.42;;
45784;SDS011;31489;51.404;5.474;2022-10-19T17:04:45;8.77;;;2.60;;
45784;SDS011;31489;51.404;5.474;2022-10-19T17:07:10;6.55;;;2.40;;
45784;SDS011;31489;51.404;5.474;2022-10-19T17:09:37;8.40;;;2.22;;
45784;SDS011;31489;51.404;5.474;2022-10-19T17:12:03;4.85;;;2.00;;
45784;SDS011;31489;51.404;5.474;2022-10-19T17:14:30;14.68;;;2.60;;
45784;SDS011;31489;51.404;5.474;2022-10-19T17:16:56;8.27;;;2.80;;
45784;SDS011;31489;51.404;5.474;2022-10-19T17:19:22;5.82;;;2.45;;
45784;SDS011;31489;51.404;5.474;2022-10-19T17:21:47;7.32;;;2.55;;
45784;SDS011;31489;51.404;5.474;2022-10-19T17:24:15;6.78;;;2.22;;
45784;SDS011;31489;51.404;5.474;2022-10-19T17:26:43;9.82;;;2.40;;
45784;SDS011;31489;51.404;5.474;2022-10-19T17:29:12;9.10;;;2.20;;
45784;SDS011;31489;51.404;5.474;2022-10-19T17:31:38;8.63;;;2.47;;
45784;SDS011;31489;51.404;5.474;2022-10-19T17:34:05;7.78;;;2.70;;